(°C)
17°
18°
18°
18°
18°
18°
18°
(°C)
16°
16°
16°
17°
17°
17°
16°
O
OSO
OSO
OSO
OSO
OSO
OSO
(km/h)
5-8
8-12
10-15
12-18
13-21
14-22
13-22
(mm)
0
0
0
0
0
0
0
(%)
3
4
5
8
10
13
9

Elevación del sol

/ 50.9°
sun-icon
UV 9
05:42
19:48
Menguante (315°)
03:37
16:32

METAR a San Diego (KSAN)

Hora Condiciones Temperatura/
Punto de condensación
Viento Visibilidad Tiempo Nubes Presión Cambiar Bruto
MVFR 17.2°C / 13.3°C variable 4kt >10km - Broken Clouds 1500ft - KSAN 261641Z VRB04KT 9SM BKN015 17/13 A2997 RMK AO2 T01720133
MVFR 16.7°C / 13.9°C 330º 3kt >10km - Overcast 1300ft 1014 - KSAN 261551Z 33003KT 9SM OVC013 17/14 A2997 RMK AO2 SLP147 T01670139
MVFR 16.1°C / 13.3°C variable 0kt >10km - Overcast 1200ft 1014 - KSAN 261451Z 00000KT 9SM OVC012 16/13 A2996 RMK AO2 SLP146 T01610133 51013
MVFR 15.6°C / 13.3°C 320º 4kt >10km - Overcast 1100ft 1014 - KSAN 261351Z 32004KT 9SM OVC011 16/13 A2995 RMK AO2 SLP142 T01560133
MVFR 15.6°C / 13.3°C variable 0kt >10km - Overcast 1100ft 1013 - KSAN 261251Z 00000KT 10SM OVC011 16/13 A2994 RMK AO2 SLP138 T01560133
MVFR 15.6°C / 13.3°C 350º 3kt >10km - Overcast 1100ft 1013 - KSAN 261151Z 35003KT 10SM OVC011 16/13 A2993 RMK AO2 SLP133 T01560133 10161 20156 55003
MVFR 15.6°C / 13.3°C variable 0kt >10km - Overcast 1200ft 1013 - KSAN 261051Z 00000KT 10SM OVC012 16/13 A2992 RMK AO2 SLP132 T01560133
MVFR 15.6°C / 13.3°C 290º 4kt >10km - Overcast 1200ft 1013 - KSAN 260951Z 29004KT 10SM OVC012 16/13 A2993 RMK AO2 SLP133 T01560133
MVFR 16.1°C / 13.3°C 300º 3kt >10km - Overcast 1200ft 1013 - KSAN 260851Z 30003KT 10SM OVC012 16/13 A2993 RMK AO2 SLP136 T01610133 58003
MVFR 16.1°C / 13.3°C 240º 3kt >10km - Overcast 1200ft 1013 - KSAN 260751Z 24003KT 10SM OVC012 16/13 A2994 RMK AO2 SLP137 T01610133 401890128
MVFR 16.1°C / 13.3°C 260º 4kt >10km - Broken Clouds 1200ft 1014 - KSAN 260651Z 26004KT 10SM BKN012 16/13 A2995 RMK AO2 SLP140 T01610133
MVFR 15.6°C / 13.3°C 300º 3kt >10km - Broken Clouds 1200ft 1013 - KSAN 260551Z 30003KT 10SM BKN012 16/13 A2994 RMK AO2 SLP139 T01560133 10189 20156 51012
MVFR 15.6°C / 13.3°C 290º 3kt >10km - Broken Clouds 1200ft - KSAN 260525Z 29003KT 10SM BKN012 16/13 A2994 RMK AO2 T01560133
VFR 15.6°C / 13.3°C variable 0kt >10km - Scattered Clouds 1500ft 1013 - KSAN 260451Z 00000KT 10SM SCT015 16/13 A2994 RMK AO2 SLP138 T01560133
VFR 16.1°C / 13.3°C 300º 4kt >10km - Scattered Clouds 1800ft 1013 - KSAN 260351Z 30004KT 10SM SCT018 16/13 A2992 RMK AO2 SLP132 T01610133
VFR 16.7°C / 12.8°C 290º 5kt >10km - Few Clouds 1800ft
Few Clouds 25000ft
1012 - KSAN 260251Z 29005KT 9SM FEW018 FEW250 17/13 A2991 RMK AO2 SLP128 T01670128 53008
VFR 17.2°C / 12.8°C 270º 7kt >10km - Few Clouds 1800ft 1012 - KSAN 260151Z 27007KT 10SM FEW018 17/13 A2989 RMK AO2 SLP122 T01720128
VFR 18.3°C / 13.3°C 280º 5kt >10km - Few Clouds 1800ft 1011 - KSAN 260051Z 28005KT 10SM FEW018 18/13 A2988 RMK AO2 SLP118 T01830133
VFR 18.9°C / 12.8°C 220º 5kt >10km - Few Clouds 1800ft 1011 - KSAN 252351Z 22005KT 10SM FEW018 19/13 A2988 RMK AO2 SLP119 T01890128 10189 20161 58015
VFR 18.9°C / 12.8°C 230º 7kt >10km - Few Clouds 1800ft 1012 - KSAN 252251Z 23007KT 10SM FEW018 19/13 A2990 RMK AO2 SLP124 T01890128
VFR 18.3°C / 12.8°C 200º 7kt >10km - Scattered Clouds 1800ft 1013 - KSAN 252151Z 20007KT 10SM SCT018 18/13 A2992 RMK AO2 SLP131 T01830128
VFR 17.8°C / 12.8°C 220º 5kt >10km - Scattered Clouds 1800ft - KSAN 252140Z 22005KT 10SM SCT018 18/13 A2992 RMK AO2 T01780128
MVFR 18.3°C / 12.8°C 230º 6kt Gust 18kt >10km - Broken Clouds 1700ft 1013 - KSAN 252051Z 23006G18KT 10SM BKN017 18/13 A2993 RMK AO2 SLP134 T01830128 58004
MVFR 17.2°C / 12.8°C variable 6kt >10km - Overcast 1600ft - KSAN 252007Z VRB06KT 10SM OVC016 17/13 A2994 RMK AO2 T01720128

MVFR

17.2°C / 13.3°C

[Más]
Viento variable 4kt
Visibilidad >10km
Tiempo -
Nubes Broken Clouds 1500ft
Presión
Cambiar -
Bruto KSAN 261641Z VRB04KT 9SM BKN015 17/13 A2997 RMK AO2 T01720133

MVFR

16.7°C / 13.9°C

[Más]
Viento 330º 3kt
Visibilidad >10km
Tiempo -
Nubes Overcast 1300ft
Presión 1014
Cambiar -
Bruto KSAN 261551Z 33003KT 9SM OVC013 17/14 A2997 RMK AO2 SLP147 T01670139

MVFR

16.1°C / 13.3°C

[Más]
Viento variable 0kt
Visibilidad >10km
Tiempo -
Nubes Overcast 1200ft
Presión 1014
Cambiar -
Bruto KSAN 261451Z 00000KT 9SM OVC012 16/13 A2996 RMK AO2 SLP146 T01610133 51013

MVFR

15.6°C / 13.3°C

[Más]
Viento 320º 4kt
Visibilidad >10km
Tiempo -
Nubes Overcast 1100ft
Presión 1014
Cambiar -
Bruto KSAN 261351Z 32004KT 9SM OVC011 16/13 A2995 RMK AO2 SLP142 T01560133

MVFR

15.6°C / 13.3°C

[Más]
Viento variable 0kt
Visibilidad >10km
Tiempo -
Nubes Overcast 1100ft
Presión 1013
Cambiar -
Bruto KSAN 261251Z 00000KT 10SM OVC011 16/13 A2994 RMK AO2 SLP138 T01560133

MVFR

15.6°C / 13.3°C

[Más]
Viento 350º 3kt
Visibilidad >10km
Tiempo -
Nubes Overcast 1100ft
Presión 1013
Cambiar -
Bruto KSAN 261151Z 35003KT 10SM OVC011 16/13 A2993 RMK AO2 SLP133 T01560133 10161 20156 55003

MVFR

15.6°C / 13.3°C

[Más]
Viento variable 0kt
Visibilidad >10km
Tiempo -
Nubes Overcast 1200ft
Presión 1013
Cambiar -
Bruto KSAN 261051Z 00000KT 10SM OVC012 16/13 A2992 RMK AO2 SLP132 T01560133

MVFR

15.6°C / 13.3°C

[Más]
Viento 290º 4kt
Visibilidad >10km
Tiempo -
Nubes Overcast 1200ft
Presión 1013
Cambiar -
Bruto KSAN 260951Z 29004KT 10SM OVC012 16/13 A2993 RMK AO2 SLP133 T01560133

MVFR

16.1°C / 13.3°C

[Más]
Viento 300º 3kt
Visibilidad >10km
Tiempo -
Nubes Overcast 1200ft
Presión 1013
Cambiar -
Bruto KSAN 260851Z 30003KT 10SM OVC012 16/13 A2993 RMK AO2 SLP136 T01610133 58003

MVFR

16.1°C / 13.3°C

[Más]
Viento 240º 3kt
Visibilidad >10km
Tiempo -
Nubes Overcast 1200ft
Presión 1013
Cambiar -
Bruto KSAN 260751Z 24003KT 10SM OVC012 16/13 A2994 RMK AO2 SLP137 T01610133 401890128

MVFR

16.1°C / 13.3°C

[Más]
Viento 260º 4kt
Visibilidad >10km
Tiempo -
Nubes Broken Clouds 1200ft
Presión 1014
Cambiar -
Bruto KSAN 260651Z 26004KT 10SM BKN012 16/13 A2995 RMK AO2 SLP140 T01610133

MVFR

15.6°C / 13.3°C

[Más]
Viento 300º 3kt
Visibilidad >10km
Tiempo -
Nubes Broken Clouds 1200ft
Presión 1013
Cambiar -
Bruto KSAN 260551Z 30003KT 10SM BKN012 16/13 A2994 RMK AO2 SLP139 T01560133 10189 20156 51012

MVFR

15.6°C / 13.3°C

[Más]
Viento 290º 3kt
Visibilidad >10km
Tiempo -
Nubes Broken Clouds 1200ft
Presión
Cambiar -
Bruto KSAN 260525Z 29003KT 10SM BKN012 16/13 A2994 RMK AO2 T01560133

VFR

15.6°C / 13.3°C

[Más]
Viento variable 0kt
Visibilidad >10km
Tiempo -
Nubes Scattered Clouds 1500ft
Presión 1013
Cambiar -
Bruto KSAN 260451Z 00000KT 10SM SCT015 16/13 A2994 RMK AO2 SLP138 T01560133

VFR

16.1°C / 13.3°C

[Más]
Viento 300º 4kt
Visibilidad >10km
Tiempo -
Nubes Scattered Clouds 1800ft
Presión 1013
Cambiar -
Bruto KSAN 260351Z 30004KT 10SM SCT018 16/13 A2992 RMK AO2 SLP132 T01610133

VFR

16.7°C / 12.8°C

[Más]
Viento 290º 5kt
Visibilidad >10km
Tiempo -
Nubes Few Clouds 1800ft
Few Clouds 25000ft
Presión 1012
Cambiar -
Bruto KSAN 260251Z 29005KT 9SM FEW018 FEW250 17/13 A2991 RMK AO2 SLP128 T01670128 53008

VFR

17.2°C / 12.8°C

[Más]
Viento 270º 7kt
Visibilidad >10km
Tiempo -
Nubes Few Clouds 1800ft
Presión 1012
Cambiar -
Bruto KSAN 260151Z 27007KT 10SM FEW018 17/13 A2989 RMK AO2 SLP122 T01720128

VFR

18.3°C / 13.3°C

[Más]
Viento 280º 5kt
Visibilidad >10km
Tiempo -
Nubes Few Clouds 1800ft
Presión 1011
Cambiar -
Bruto KSAN 260051Z 28005KT 10SM FEW018 18/13 A2988 RMK AO2 SLP118 T01830133

VFR

18.9°C / 12.8°C

[Más]
Viento 220º 5kt
Visibilidad >10km
Tiempo -
Nubes Few Clouds 1800ft
Presión 1011
Cambiar -
Bruto KSAN 252351Z 22005KT 10SM FEW018 19/13 A2988 RMK AO2 SLP119 T01890128 10189 20161 58015

VFR

18.9°C / 12.8°C

[Más]
Viento 230º 7kt
Visibilidad >10km
Tiempo -
Nubes Few Clouds 1800ft
Presión 1012
Cambiar -
Bruto KSAN 252251Z 23007KT 10SM FEW018 19/13 A2990 RMK AO2 SLP124 T01890128

VFR

18.3°C / 12.8°C

[Más]
Viento 200º 7kt
Visibilidad >10km
Tiempo -
Nubes Scattered Clouds 1800ft
Presión 1013
Cambiar -
Bruto KSAN 252151Z 20007KT 10SM SCT018 18/13 A2992 RMK AO2 SLP131 T01830128

VFR

17.8°C / 12.8°C

[Más]
Viento 220º 5kt
Visibilidad >10km
Tiempo -
Nubes Scattered Clouds 1800ft
Presión
Cambiar -
Bruto KSAN 252140Z 22005KT 10SM SCT018 18/13 A2992 RMK AO2 T01780128

MVFR

18.3°C / 12.8°C

[Más]
Viento 230º 6kt Gust 18kt
Visibilidad >10km
Tiempo -
Nubes Broken Clouds 1700ft
Presión 1013
Cambiar -
Bruto KSAN 252051Z 23006G18KT 10SM BKN017 18/13 A2993 RMK AO2 SLP134 T01830128 58004

MVFR

17.2°C / 12.8°C

[Más]
Viento variable 6kt
Visibilidad >10km
Tiempo -
Nubes Overcast 1600ft
Presión
Cambiar -
Bruto KSAN 252007Z VRB06KT 10SM OVC016 17/13 A2994 RMK AO2 T01720128

TAF a San Diego (KSAN)

From till


From till Wind 320º 4kt. Visibility 10km or more. Overcast 1100ft.
From till Wind 250º 9kt. Visibility 10km or more. Scattered Clouds 1500ft.
From till Wind 270º 6kt. Visibility 10km or more. Broken Clouds 1400ft.
From till Wind variable 3kt. Visibility 10km or more. Overcast 1200ft.

Bruto: KSAN 261445Z 2615/2718 32004KT P6SM OVC011 FM262000 25009KT P6SM SCT015 FM270200 27006KT P6SM BKN014 FM270500 VRB03KT P6SM OVC012

Radar y precipitación nowcast para San Diego

llovizna
Leve
Moderado
Fuerte
Muy fuerte
Granizo

El marcador del lugar se coloca en San Diego. Esta animación muestra el radar de precipitaciones hasta la última hora, así como 1h de previsión. Las lloviznas o las nevadas ligeras pueden ser invisibles para el radar. La intensidad de la precipitación está codificada por colores, que van del azul claro al naranja.

Imágenes actuales de satélite para San Diego, Estados Unidos

El marcador del lugar se coloca en San Diego. [Más]

La imagen de satélite en tiempo real se aprovecha de la combinación de bandas de la luz visible y de la luz infrarroja. Cómo se pueden detectar cambios de temperaturas a través de la banda infrarrojo, la imagen no aparece oscura de noche. No obstante, la niebla y las nubes bajas son apenas visibles en las imágenes de infrarrojo ya que las diferencias de temperaturas entre el suelo y la niebla son muy pequeñas, por eso, son casi invisibles durante la noche. Las imágenes de satélite del Meteosat (Europa) son actualizados en tiempo real cada 5 minutos. Las imágenes del GOES-16/GOES-17 (América del Norte y América del Sur) y Himawari (Asia) son actualizadas cada 10 minutos.

Volver al principio